Time;durP1;ratioP1;P1;durP2;ratioP2;P2;SDS_P1;SDS_P2;PMS_P1;PMS_P2;Temp;Humidity;BMP_temperature;BMP_pressure;BME280_temperature;BME280_humidity;BME280_pressure;Samples;Min_cycle;Max_cycle;Signal;HPM_P1;HPM_P2
2021/07/27 00:01:05;;;;;;;37.35;18.27;;;;;;;;;;5020368;28;20218;-62
2021/07/27 00:03:30;;;;;;;39.72;18.33;;;;;;;;;;5023598;28;20115;-63
2021/07/27 00:05:56;;;;;;;37.97;17.75;;;;;;;;;;5034496;28;20020;-62
2021/07/27 00:08:24;;;;;;;42.53;19.98;;;;;;;;;;5034011;28;20033;-62
2021/07/27 00:10:50;;;;;;;40.50;19.67;;;;;;;;;;5024626;28;20024;-62
2021/07/27 00:13:15;;;;;;;46.65;19.17;;;;;;;;;;5034682;28;20460;-62
2021/07/27 00:15:42;;;;;;;38.80;19.02;;;;;;;;;;5031320;28;20043;-61
2021/07/27 00:18:08;;;;;;;43.17;18.95;;;;;;;;;;5001161;28;20021;-61
2021/07/27 00:20:36;;;;;;;42.00;19.95;;;;;;;;;;5032140;28;20113;-61
2021/07/27 00:23:02;;;;;;;44.65;20.00;;;;;;;;;;5025655;28;20048;-61
2021/07/27 00:25:27;;;;;;;49.10;21.50;;;;;;;;;;5032721;28;20035;-62
2021/07/27 00:27:58;;;;;;;48.47;21.35;;;;;;;;;;5020129;28;22141;-62
2021/07/27 00:30:23;;;;;;;48.95;21.55;;;;;;;;;;5035813;28;21028;-61
2021/07/27 00:32:49;;;;;;;47.08;21.20;;;;;;;;;;5003420;28;20025;-62
2021/07/27 00:35:15;;;;;;;48.95;21.02;;;;;;;;;;5032376;28;20040;-62
2021/07/27 00:37:45;;;;;;;46.65;22.35;;;;;;;;;;5036315;28;20028;-61
2021/07/27 00:40:11;;;;;;;55.47;23.63;;;;;;;;;;5016690;28;20698;-61
2021/07/27 00:42:45;;;;;;;54.90;24.70;;;;;;;;;;5018362;28;20040;-62
2021/07/27 00:45:16;;;;;;;66.88;26.52;;;;;;;;;;5023459;28;20057;-62
2021/07/27 00:47:44;;;;;;;57.00;25.77;;;;;;;;;;5014490;28;20311;-62
2021/07/27 00:50:14;;;;;;;65.45;25.42;;;;;;;;;;5035018;28;21980;-62
2021/07/27 00:52:40;;;;;;;67.55;27.20;;;;;;;;;;5023215;28;20029;-62
2021/07/27 00:55:07;;;;;;;62.25;25.23;;;;;;;;;;5017427;28;20038;-62
2021/07/27 00:57:33;;;;;;;64.38;26.45;;;;;;;;;;5001630;28;20074;-62
2021/07/27 00:59:59;;;;;;;62.47;26.40;;;;;;;;;;5034549;28;20036;-61
2021/07/27 01:02:25;;;;;;;78.03;27.17;;;;;;;;;;5018834;28;20040;-63
2021/07/27 01:04:52;;;;;;;67.03;27.50;;;;;;;;;;5034407;28;20028;-62
2021/07/27 01:07:21;;;;;;;69.13;27.75;;;;;;;;;;5035374;28;20082;-62
2021/07/27 01:09:49;;;;;;;65.03;26.88;;;;;;;;;;5017672;28;20040;-61
2021/07/27 01:12:19;;;;;;;69.18;26.50;;;;;;;;;;5035104;28;20032;-62
2021/07/27 01:14:47;;;;;;;70.80;27.17;;;;;;;;;;5017953;28;20091;-62
2021/07/27 01:17:13;;;;;;;68.32;26.83;;;;;;;;;;5025730;28;20499;-62
2021/07/27 01:39:00;;;;;;;58.38;24.80;;;;;;;;;;5020207;28;21013;-61
2021/07/27 01:43:51;;;;;;;50.65;23.13;;;;;;;;;;5036762;28;20041;-63
2021/07/27 01:46:17;;;;;;;61.83;23.98;;;;;;;;;;5013261;28;20052;-60
2021/07/27 01:48:43;;;;;;;58.25;23.63;;;;;;;;;;5021516;28;20037;-61
2021/07/27 01:51:10;;;;;;;59.72;24.30;;;;;;;;;;5038035;28;20040;-62
2021/07/27 01:54:01;;;;;;;53.22;22.10;;;;;;;;;;5026306;28;20036;-63
2021/07/27 01:56:30;;;;;;;61.42;24.08;;;;;;;;;;5037652;28;20945;-62
2021/07/27 01:58:57;;;;;;;54.40;22.67;;;;;;;;;;5028601;28;20036;-62
2021/07/27 02:01:31;;;;;;;53.92;23.58;;;;;;;;;;5006054;28;20083;-62
2021/07/27 02:03:59;;;;;;;52.50;23.30;;;;;;;;;;5021018;28;20040;-61
2021/07/27 02:06:24;;;;;;;58.38;22.00;;;;;;;;;;5007723;28;20037;-61
2021/07/27 02:08:50;;;;;;;55.80;23.45;;;;;;;;;;5026314;28;20033;-61
2021/07/27 02:11:19;;;;;;;54.65;21.40;;;;;;;;;;5005875;28;20045;-62
2021/07/27 02:13:54;;;;;;;53.70;22.27;;;;;;;;;;5024151;28;20149;-61
2021/07/27 02:16:24;;;;;;;62.30;23.80;;;;;;;;;;5035901;28;20029;-62
2021/07/27 02:18:53;;;;;;;59.78;22.38;;;;;;;;;;5038534;28;20037;-62
2021/07/27 02:21:18;;;;;;;55.70;21.45;;;;;;;;;;5039406;28;20046;-61
2021/07/27 02:23:46;;;;;;;61.65;23.38;;;;;;;;;;5035886;28;20047;-62
2021/07/27 02:26:11;;;;;;;66.57;22.48;;;;;;;;;;5038815;28;20067;-61
2021/07/27 02:28:37;;;;;;;48.47;17.70;;;;;;;;;;5026193;28;20081;-60
2021/07/27 02:31:13;;;;;;;56.72;17.33;;;;;;;;;;5021200;28;20083;-62
2021/07/27 02:33:38;;;;;;;38.75;14.65;;;;;;;;;;5038670;28;20111;-61
2021/07/27 02:36:08;;;;;;;30.52;13.13;;;;;;;;;;5027236;28;20070;-62
2021/07/27 02:38:39;;;;;;;22.60;10.23;;;;;;;;;;5019763;28;20037;-60
2021/07/27 02:41:04;;;;;;;39.35;10.75;;;;;;;;;;5019317;28;20106;-58
2021/07/27 02:43:32;;;;;;;23.23;8.95;;;;;;;;;;5036319;28;20079;-60
2021/07/27 02:46:00;;;;;;;20.10;9.23;;;;;;;;;;5028052;28;20718;-60
2021/07/27 02:48:32;;;;;;;27.75;9.82;;;;;;;;;;5021716;28;20427;-61
2021/07/27 02:51:01;;;;;;;19.17;9.40;;;;;;;;;;5021495;28;20028;-61
2021/07/27 02:53:32;;;;;;;22.73;10.50;;;;;;;;;;5023654;28;20028;-61
2021/07/27 02:56:00;;;;;;;32.00;11.10;;;;;;;;;;5037088;28;20076;-62
2021/07/27 02:58:25;;;;;;;33.28;11.35;;;;;;;;;;5037693;28;20048;-62
2021/07/27 03:00:51;;;;;;;29.73;11.05;;;;;;;;;;5037868;28;20037;-62
2021/07/27 03:03:19;;;;;;;24.05;11.10;;;;;;;;;;5022037;28;20699;-62
2021/07/27 03:05:44;;;;;;;30.40;11.60;;;;;;;;;;5021733;28;20115;-62
2021/07/27 03:08:19;;;;;;;37.83;12.27;;;;;;;;;;5036686;28;20033;-63
2021/07/27 03:10:44;;;;;;;33.53;12.52;;;;;;;;;;5039750;28;20475;-62
2021/07/27 03:13:10;;;;;;;35.75;14.95;;;;;;;;;;5038642;28;20044;-60
2021/07/27 03:15:35;;;;;;;41.13;14.57;;;;;;;;;;5036831;28;20892;-62
2021/07/27 03:18:03;;;;;;;45.78;16.02;;;;;;;;;;5038012;28;20045;-60
2021/07/27 03:20:31;;;;;;;47.55;16.80;;;;;;;;;;5039724;28;20025;-57
2021/07/27 03:22:59;;;;;;;56.92;18.48;;;;;;;;;;5039323;28;20048;-57
2021/07/27 03:25:25;;;;;;;50.45;18.23;;;;;;;;;;5037545;28;20039;-57
2021/07/27 03:27:53;;;;;;;60.97;19.67;;;;;;;;;;5037307;28;21088;-59
2021/07/27 03:30:21;;;;;;;50.08;18.77;;;;;;;;;;5036239;28;20028;-59
2021/07/27 03:32:47;;;;;;;46.17;16.77;;;;;;;;;;5037842;28;20029;-59
2021/07/27 03:35:20;;;;;;;50.00;18.90;;;;;;;;;;5040107;28;20116;-60
2021/07/27 03:37:48;;;;;;;47.88;18.45;;;;;;;;;;5037230;28;20068;-58
2021/07/27 03:40:19;;;;;;;50.70;18.75;;;;;;;;;;5038204;28;20557;-59
2021/07/27 03:42:45;;;;;;;39.30;17.30;;;;;;;;;;5038698;28;20033;-61
2021/07/27 03:45:12;;;;;;;47.58;18.55;;;;;;;;;;5037200;28;20072;-60
2021/07/27 03:47:38;;;;;;;43.30;18.48;;;;;;;;;;4993327;28;20061;-60
2021/07/27 03:50:04;;;;;;;47.78;18.60;;;;;;;;;;5025773;28;20048;-59
2021/07/27 03:52:33;;;;;;;49.58;18.80;;;;;;;;;;5037264;28;20032;-57
2021/07/27 03:54:59;;;;;;;41.80;18.23;;;;;;;;;;5037070;28;20060;-58
2021/07/27 03:57:30;;;;;;;45.17;19.63;;;;;;;;;;5035870;28;20158;-58
2021/07/27 03:59:57;;;;;;;43.08;18.48;;;;;;;;;;5036008;28;20040;-58
2021/07/27 04:02:25;;;;;;;52.10;19.85;;;;;;;;;;5036398;28;20147;-58
2021/07/27 04:04:53;;;;;;;56.50;19.73;;;;;;;;;;5035096;28;20043;-58
2021/07/27 04:07:18;;;;;;;52.28;19.52;;;;;;;;;;5002271;28;20032;-58
2021/07/27 04:09:44;;;;;;;48.88;18.13;;;;;;;;;;5034821;28;20087;-58
2021/07/27 04:12:11;;;;;;;46.42;19.17;;;;;;;;;;5035494;28;20440;-57
2021/07/27 04:14:42;;;;;;;51.53;19.02;;;;;;;;;;5015661;28;20131;-58
2021/07/27 04:17:19;;;;;;;49.10;18.77;;;;;;;;;;5024826;28;20036;-59
2021/07/27 04:19:46;;;;;;;56.87;20.03;;;;;;;;;;5035937;28;20059;-59
2021/07/27 04:22:11;;;;;;;54.60;19.00;;;;;;;;;;5018540;28;20318;-59
2021/07/27 04:24:37;;;;;;;46.97;18.75;;;;;;;;;;4987854;28;20033;-58
2021/07/27 04:27:02;;;;;;;52.55;20.35;;;;;;;;;;5009789;28;20043;-57
2021/07/27 04:29:28;;;;;;;50.15;19.13;;;;;;;;;;4999102;28;20064;-59
2021/07/27 04:31:55;;;;;;;51.08;18.40;;;;;;;;;;5035154;28;20029;-59
2021/07/27 04:34:21;;;;;;;50.47;17.10;;;;;;;;;;5035753;28;20051;-60
2021/07/27 04:36:54;;;;;;;52.60;19.20;;;;;;;;;;5019550;28;20037;-59
2021/07/27 04:39:19;;;;;;;48.42;19.90;;;;;;;;;;5016874;28;20068;-58
2021/07/27 04:41:45;;;;;;;49.60;17.95;;;;;;;;;;5024728;28;20047;-59
2021/07/27 04:44:12;;;;;;;50.08;18.02;;;;;;;;;;5034983;28;20040;-58
2021/07/27 04:46:41;;;;;;;42.58;17.50;;;;;;;;;;5020722;28;20058;-58
2021/07/27 04:49:08;;;;;;;42.00;17.48;;;;;;;;;;5002853;28;20033;-58
2021/07/27 04:51:37;;;;;;;48.97;17.48;;;;;;;;;;5037106;28;20028;-59
2021/07/27 04:54:05;;;;;;;41.38;17.30;;;;;;;;;;5018459;28;20222;-60
2021/07/27 04:56:33;;;;;;;38.25;16.67;;;;;;;;;;5009957;28;20160;-59
2021/07/27 04:59:02;;;;;;;37.40;15.88;;;;;;;;;;5015076;28;20048;-59
2021/07/27 05:01:32;;;;;;;36.13;14.38;;;;;;;;;;5035057;28;20036;-59
2021/07/27 05:03:58;;;;;;;33.47;14.73;;;;;;;;;;5019556;28;20044;-60
2021/07/27 05:06:26;;;;;;;22.40;12.68;;;;;;;;;;5016652;28;20028;-59
2021/07/27 05:08:53;;;;;;;22.13;12.70;;;;;;;;;;5032384;28;20041;-59
2021/07/27 05:11:21;;;;;;;23.33;11.55;;;;;;;;;;5007127;28;20033;-59
2021/07/27 05:13:53;;;;;;;24.73;12.80;;;;;;;;;;5003774;28;20603;-60
2021/07/27 05:16:19;;;;;;;30.73;13.90;;;;;;;;;;5038919;28;20083;-61
2021/07/27 05:18:45;;;;;;;31.73;12.77;;;;;;;;;;5038560;28;20036;-59
2021/07/27 05:21:13;;;;;;;27.48;12.98;;;;;;;;;;5038168;28;20074;-59
2021/07/27 05:23:42;;;;;;;26.65;12.90;;;;;;;;;;5038202;28;20059;-59
2021/07/27 05:26:07;;;;;;;25.02;12.73;;;;;;;;;;5017414;28;20041;-59
2021/07/27 05:28:33;;;;;;;29.58;13.80;;;;;;;;;;5038243;28;20021;-59
2021/07/27 05:30:58;;;;;;;31.08;13.80;;;;;;;;;;5036858;28;20216;-59
2021/07/27 05:33:23;;;;;;;31.02;13.70;;;;;;;;;;5037208;28;20238;-60
2021/07/27 05:35:51;;;;;;;29.20;13.07;;;;;;;;;;5038592;28;20504;-59
2021/07/27 05:38:19;;;;;;;27.67;13.88;;;;;;;;;;5037379;28;22188;-59
2021/07/27 05:40:51;;;;;;;32.33;13.75;;;;;;;;;;5036362;28;20028;-58
2021/07/27 05:43:22;;;;;;;;;;;;;;;;;;5019746;28;20469;-59
2021/07/27 05:45:50;;;;;;;27.50;12.77;;;;;;;;;;5019320;28;19925;-58
2021/07/27 05:48:17;;;;;;;23.77;12.07;;;;;;;;;;5037162;28;20040;-59
2021/07/27 05:50:45;;;;;;;23.20;11.82;;;;;;;;;;5039426;28;20040;-59
2021/07/27 05:53:10;;;;;;;20.85;10.88;;;;;;;;;;4998197;28;21801;-59
2021/07/27 05:55:35;;;;;;;24.90;11.63;;;;;;;;;;5039139;28;20068;-60
2021/07/27 05:58:06;;;;;;;19.25;9.77;;;;;;;;;;5036665;28;22131;-59
2021/07/27 06:00:35;;;;;;;22.67;10.00;;;;;;;;;;5004589;28;20040;-59
2021/07/27 06:03:06;;;;;;;22.00;11.52;;;;;;;;;;5036351;28;20044;-60
2021/07/27 06:05:36;;;;;;;23.95;11.45;;;;;;;;;;5036963;28;20089;-58
2021/07/27 06:08:02;;;;;;;21.63;11.48;;;;;;;;;;5036070;28;20044;-59
2021/07/27 06:10:30;;;;;;;23.63;11.25;;;;;;;;;;5036281;28;20368;-58
2021/07/27 06:12:56;;;;;;;23.58;11.90;;;;;;;;;;5036255;28;20119;-60
2021/07/27 06:15:21;;;;;;;21.27;11.50;;;;;;;;;;5018431;28;20562;-59
2021/07/27 06:17:49;;;;;;;30.13;11.93;;;;;;;;;;5020950;28;20033;-61
2021/07/27 06:20:22;;;;;;;22.15;10.48;;;;;;;;;;5037035;28;20044;-59
2021/07/27 06:22:50;;;;;;;20.73;11.23;;;;;;;;;;5026147;28;20036;-60
2021/07/27 06:25:15;;;;;;;18.77;11.23;;;;;;;;;;5008815;28;20083;-60
2021/07/27 06:27:45;;;;;;;18.67;10.82;;;;;;;;;;5032164;28;20064;-59
2021/07/27 06:30:12;;;;;;;20.20;10.88;;;;;;;;;;5035072;28;20064;-59
2021/07/27 06:32:37;;;;;;;22.98;11.00;;;;;;;;;;5037247;28;20086;-58
2021/07/27 06:35:06;;;;;;;22.67;10.68;;;;;;;;;;5035779;28;21923;-59
2021/07/27 06:37:33;;;;;;;24.98;11.25;;;;;;;;;;5035602;28;21232;-59
2021/07/27 06:40:03;;;;;;;17.52;9.40;;;;;;;;;;5036722;28;20602;-59
2021/07/27 06:42:36;;;;;;;17.77;10.73;;;;;;;;;;5035800;28;20040;-59
2021/07/27 06:45:04;;;;;;;20.63;10.35;;;;;;;;;;5018542;28;20048;-59
2021/07/27 06:47:30;;;;;;;21.05;10.35;;;;;;;;;;5022604;28;20035;-59
2021/07/27 06:50:00;;;;;;;19.30;11.35;;;;;;;;;;5018656;28;20165;-59
2021/07/27 06:52:27;;;;;;;20.48;11.50;;;;;;;;;;5002183;28;20024;-59
2021/07/27 06:54:53;;;;;;;19.30;10.73;;;;;;;;;;5037208;28;20090;-60
2021/07/27 06:57:22;;;;;;;25.00;11.93;;;;;;;;;;5004540;28;20037;-59
2021/07/27 06:59:47;;;;;;;19.90;12.13;;;;;;;;;;5001953;28;20044;-61
2021/07/27 07:02:13;;;;;;;19.52;11.55;;;;;;;;;;5032933;28;20748;-60
2021/07/27 07:04:38;;;;;;;26.20;11.45;;;;;;;;;;5034560;28;20033;-59
2021/07/27 07:07:11;;;;;;;24.92;12.27;;;;;;;;;;5036656;28;20045;-59
2021/07/27 07:09:39;;;;;;;26.05;13.30;;;;;;;;;;5034030;28;20060;-60
2021/07/27 07:12:07;;;;;;;23.50;13.07;;;;;;;;;;5009832;28;20048;-59
2021/07/27 07:14:35;;;;;;;26.67;14.05;;;;;;;;;;5031601;28;20013;-60
2021/07/27 07:17:00;;;;;;;22.83;14.15;;;;;;;;;;5010300;28;20043;-60
2021/07/27 07:19:28;;;;;;;28.10;14.45;;;;;;;;;;5003352;28;20075;-60
2021/07/27 07:21:53;;;;;;;28.55;14.77;;;;;;;;;;5035216;28;20156;-60
2021/07/27 07:24:19;;;;;;;28.92;15.75;;;;;;;;;;5036357;28;20499;-60
2021/07/27 07:26:46;;;;;;;34.40;15.82;;;;;;;;;;5033550;28;20163;-61
2021/07/27 07:29:11;;;;;;;33.40;15.68;;;;;;;;;;5033600;28;20032;-61
2021/07/27 07:31:37;;;;;;;33.75;16.48;;;;;;;;;;5020105;28;20062;-61
2021/07/27 07:34:03;;;;;;;32.60;16.55;;;;;;;;;;5036420;28;20040;-61
2021/07/27 07:36:29;;;;;;;32.92;16.65;;;;;;;;;;5035726;28;20090;-60
2021/07/27 07:38:57;;;;;;;33.50;17.17;;;;;;;;;;5036019;28;20103;-61
2021/07/27 07:41:24;;;;;;;38.75;17.02;;;;;;;;;;5007239;28;20084;-61
2021/07/27 07:43:53;;;;;;;33.00;17.05;;;;;;;;;;5036156;28;20040;-62
2021/07/27 07:46:20;;;;;;;31.20;18.15;;;;;;;;;;5010569;28;20440;-60
2021/07/27 07:48:48;;;;;;;38.85;18.23;;;;;;;;;;5025003;28;20041;-59
2021/07/27 07:51:16;;;;;;;33.88;17.40;;;;;;;;;;5021126;28;20067;-62
2021/07/27 07:53:44;;;;;;;28.27;17.10;;;;;;;;;;5036391;28;20033;-62
2021/07/27 07:56:12;;;;;;;29.60;16.25;;;;;;;;;;5026230;28;20083;-62
2021/07/27 07:58:40;;;;;;;25.98;16.50;;;;;;;;;;5036463;28;22024;-61
2021/07/27 08:01:11;;;;;;;30.52;16.15;;;;;;;;;;5033875;28;20017;-63
2021/07/27 08:03:39;;;;;;;30.52;15.68;;;;;;;;;;5025828;28;20038;-62
2021/07/27 08:06:10;;;;;;;28.30;15.00;;;;;;;;;;5034393;28;20040;-62
2021/07/27 08:08:39;;;;;;;27.75;15.68;;;;;;;;;;5036555;28;20032;-63
2021/07/27 08:11:04;;;;;;;22.08;13.23;;;;;;;;;;5019402;28;20043;-63
2021/07/27 08:13:32;;;;;;;25.85;14.25;;;;;;;;;;5035515;28;20040;-63
2021/07/27 08:16:00;;;;;;;30.35;14.77;;;;;;;;;;5036000;28;20066;-61
2021/07/27 08:18:26;;;;;;;24.08;14.48;;;;;;;;;;5007422;28;20036;-60
2021/07/27 08:20:52;;;;;;;24.45;13.82;;;;;;;;;;5035993;28;20078;-60
2021/07/27 08:23:17;;;;;;;29.52;15.07;;;;;;;;;;5034094;28;20034;-61
2021/07/27 08:25:43;;;;;;;23.63;14.88;;;;;;;;;;5016727;28;20444;-61
2021/07/27 08:28:15;;;;;;;25.25;15.30;;;;;;;;;;5034045;28;20121;-61
2021/07/27 08:30:40;;;;;;;30.50;15.98;;;;;;;;;;5021563;28;20036;-61
2021/07/27 08:33:05;;;;;;;28.70;16.67;;;;;;;;;;5020529;28;21002;-60
2021/07/27 08:35:31;;;;;;;29.80;15.77;;;;;;;;;;5015840;28;20037;-61
2021/07/27 08:37:57;;;;;;;28.58;15.95;;;;;;;;;;5017545;28;20423;-61
2021/07/27 08:40:24;;;;;;;31.75;16.02;;;;;;;;;;5034554;28;22091;-61
2021/07/27 08:42:52;;;;;;;33.35;17.38;;;;;;;;;;5033819;28;20995;-61
2021/07/27 08:45:18;;;;;;;32.00;17.42;;;;;;;;;;5029445;28;20041;-61
2021/07/27 08:47:46;;;;;;;29.08;16.58;;;;;;;;;;5029988;28;22021;-60
2021/07/27 08:50:12;;;;;;;27.55;16.02;;;;;;;;;;5031481;28;20047;-61
2021/07/27 08:52:38;;;;;;;29.75;15.95;;;;;;;;;;5003332;28;20033;-63
2021/07/27 08:55:05;;;;;;;25.50;15.25;;;;;;;;;;5032656;28;20045;-61
2021/07/27 08:57:31;;;;;;;25.02;16.10;;;;;;;;;;5032499;28;20057;-61
2021/07/27 08:59:56;;;;;;;28.50;16.10;;;;;;;;;;5020190;28;20043;-61
2021/07/27 09:02:28;;;;;;;23.45;15.80;;;;;;;;;;5033382;28;20057;-60
2021/07/27 09:05:07;;;;;;;26.90;15.15;;;;;;;;;;5012238;28;20040;-60
2021/07/27 09:07:37;;;;;;;22.13;13.75;;;;;;;;;;5032827;28;22009;-60
2021/07/27 09:10:19;;;;;;;29.95;14.50;;;;;;;;;;5002057;28;20040;-59
2021/07/27 09:13:06;;;;;;;24.05;15.15;;;;;;;;;;5004154;28;20049;-61
2021/07/27 09:15:33;;;;;;;23.50;14.13;;;;;;;;;;5031956;28;20105;-61
2021/07/27 09:18:00;;;;;;;25.55;14.55;;;;;;;;;;5030823;28;20029;-61
2021/07/27 09:20:30;;;;;;;24.55;15.55;;;;;;;;;;5015115;28;20043;-60
2021/07/27 09:22:56;;;;;;;22.90;14.75;;;;;;;;;;5001690;28;20041;-60
2021/07/27 09:25:26;;;;;;;21.60;15.00;;;;;;;;;;5014972;28;20045;-60
2021/07/27 09:28:12;;;;;;;20.80;13.27;;;;;;;;;;5014657;28;20063;-61
2021/07/27 09:30:38;;;;;;;28.65;14.77;;;;;;;;;;5003668;28;20992;-61
2021/07/27 09:33:05;;;;;;;27.42;15.63;;;;;;;;;;5015778;28;20037;-61
2021/07/27 09:35:31;;;;;;;26.17;14.25;;;;;;;;;;5034154;28;20110;-61
2021/07/27 09:38:16;;;;;;;27.83;15.25;;;;;;;;;;5033163;28;20036;-60
2021/07/27 09:40:52;;;;;;;25.00;15.65;;;;;;;;;;5029755;28;20021;-62
2021/07/27 09:43:18;;;;;;;23.55;15.02;;;;;;;;;;5031537;28;20105;-60
2021/07/27 09:45:47;;;;;;;23.70;14.98;;;;;;;;;;5032639;28;20044;-62
2021/07/27 09:48:21;;;;;;;23.15;14.40;;;;;;;;;;5034258;28;20108;-61
2021/07/27 09:50:47;;;;;;;25.75;15.55;;;;;;;;;;5023317;28;20114;-60
2021/07/27 09:53:15;;;;;;;19.83;13.95;;;;;;;;;;5022370;28;20033;-60
2021/07/27 09:55:43;;;;;;;22.40;14.30;;;;;;;;;;5029071;28;20033;-61
2021/07/27 09:58:11;;;;;;;21.63;14.05;;;;;;;;;;5015898;28;20190;-61
2021/07/27 10:00:51;;;;;;;24.17;14.18;;;;;;;;;;5034088;28;20116;-61
2021/07/27 10:03:22;;;;;;;22.20;13.90;;;;;;;;;;5033840;28;20086;-61
2021/07/27 10:05:52;;;;;;;21.55;14.02;;;;;;;;;;5034640;28;20033;-61
2021/07/27 10:08:29;;;;;;;22.00;13.65;;;;;;;;;;5017326;28;20150;-61
2021/07/27 10:11:07;;;;;;;19.42;12.55;;;;;;;;;;5022069;28;20056;-61
2021/07/27 10:13:36;;;;;;;20.25;13.07;;;;;;;;;;5037736;28;20037;-61
2021/07/27 10:16:03;;;;;;;20.10;12.38;;;;;;;;;;5037919;28;20147;-62
2021/07/27 10:18:30;;;;;;;19.10;12.80;;;;;;;;;;5021898;28;20048;-62
2021/07/27 10:21:14;;;;;;;15.23;10.75;;;;;;;;;;5035547;28;20087;-62
2021/07/27 10:23:41;;;;;;;16.00;10.10;;;;;;;;;;5037343;28;20025;-62
2021/07/27 10:26:06;;;;;;;16.70;9.57;;;;;;;;;;5033916;28;22165;-61
2021/07/27 10:28:34;;;;;;;18.02;11.23;;;;;;;;;;5033046;28;20039;-60
2021/07/27 10:31:04;;;;;;;15.45;10.82;;;;;;;;;;5018576;28;20059;-61
2021/07/27 10:33:30;;;;;;;16.83;11.18;;;;;;;;;;5014587;28;20028;-61
2021/07/27 10:35:58;;;;;;;19.33;11.32;;;;;;;;;;5015349;28;20040;-63
2021/07/27 10:38:34;;;;;;;17.60;12.60;;;;;;;;;;5034253;28;20040;-62
2021/07/27 10:41:00;;;;;;;20.40;13.40;;;;;;;;;;5013856;28;20630;-62
2021/07/27 10:43:25;;;;;;;20.30;13.70;;;;;;;;;;5019250;28;20033;-62
2021/07/27 10:45:58;;;;;;;19.88;12.43;;;;;;;;;;5012878;28;20076;-64
2021/07/27 10:48:33;;;;;;;16.25;11.63;;;;;;;;;;5034716;28;20415;-62
2021/07/27 10:51:00;;;;;;;17.95;11.80;;;;;;;;;;5031881;28;20036;-64
2021/07/27 10:53:25;;;;;;;13.38;10.45;;;;;;;;;;5031939;28;20021;-64
2021/07/27 10:55:52;;;;;;;16.92;11.48;;;;;;;;;;5034840;28;20054;-64
2021/07/27 10:58:21;;;;;;;14.23;10.18;;;;;;;;;;5011744;28;20480;-62
2021/07/27 11:00:47;;;;;;;13.80;10.20;;;;;;;;;;5031449;28;20500;-63
2021/07/27 11:03:15;;;;;;;11.68;9.00;;;;;;;;;;5030972;28;20066;-62
2021/07/27 11:05:45;;;;;;;15.52;10.73;;;;;;;;;;5031575;28;20090;-63
2021/07/27 11:08:23;;;;;;;13.95;10.60;;;;;;;;;;5016330;28;20033;-63
2021/07/27 11:10:48;;;;;;;14.45;10.18;;;;;;;;;;5018334;28;20049;-62
2021/07/27 11:13:14;;;;;;;14.65;10.68;;;;;;;;;;5025546;28;20074;-64
2021/07/27 11:15:43;;;;;;;11.70;9.52;;;;;;;;;;5034751;28;20029;-66
2021/07/27 11:18:10;;;;;;;11.98;8.73;;;;;;;;;;5019614;28;20063;-67
2021/07/27 11:20:37;;;;;;;9.20;7.50;;;;;;;;;;5036078;28;20036;-64
2021/07/27 11:23:21;;;;;;;11.07;8.48;;;;;;;;;;5024931;28;20091;-67
2021/07/27 11:25:52;;;;;;;13.32;7.75;;;;;;;;;;5006458;28;20033;-65
2021/07/27 11:28:18;;;;;;;11.32;7.88;;;;;;;;;;5035187;28;20017;-65
2021/07/27 11:30:44;;;;;;;12.73;7.65;;;;;;;;;;5035164;28;20025;-64
2021/07/27 11:33:11;;;;;;;11.68;7.90;;;;;;;;;;5035836;28;20037;-64
2021/07/27 11:35:42;;;;;;;12.65;7.72;;;;;;;;;;5020418;28;20093;-63
2021/07/27 11:38:11;;;;;;;10.68;7.15;;;;;;;;;;5034899;28;20036;-64
2021/07/27 11:40:40;;;;;;;13.90;7.78;;;;;;;;;;5036246;28;20067;-64
2021/07/27 11:43:07;;;;;;;10.20;6.82;;;;;;;;;;5023386;28;20040;-66
2021/07/27 11:45:37;;;;;;;8.10;5.53;;;;;;;;;;5002487;28;20052;-65
2021/07/27 11:48:03;;;;;;;8.60;5.47;;;;;;;;;;5035874;28;20080;-65
2021/07/27 11:50:33;;;;;;;11.18;5.90;;;;;;;;;;5007643;28;20068;-65
2021/07/27 11:52:59;;;;;;;9.43;6.10;;;;;;;;;;5001499;28;20032;-64
2021/07/27 11:55:31;;;;;;;7.75;5.82;;;;;;;;;;5019818;28;20086;-65
2021/07/27 11:57:58;;;;;;;9.27;5.85;;;;;;;;;;5025959;28;20044;-65
2021/07/27 12:00:24;;;;;;;7.03;5.65;;;;;;;;;;5018625;28;20037;-64
2021/07/27 12:02:52;;;;;;;6.85;5.63;;;;;;;;;;5016394;28;20037;-64
2021/07/27 12:05:18;;;;;;;9.02;6.18;;;;;;;;;;5019805;28;20041;-64
2021/07/27 12:07:46;;;;;;;9.05;5.80;;;;;;;;;;5017272;28;20045;-65
2021/07/27 12:10:12;;;;;;;10.80;5.90;;;;;;;;;;5035912;28;20091;-65
2021/07/27 12:12:38;;;;;;;9.85;6.85;;;;;;;;;;5021420;28;20056;-66
2021/07/27 12:15:05;;;;;;;10.25;5.70;;;;;;;;;;5023953;28;20033;-64
2021/07/27 12:17:36;;;;;;;9.25;5.95;;;;;;;;;;5016271;28;22083;-65
2021/07/27 12:20:01;;;;;;;10.52;5.97;;;;;;;;;;5018576;28;20036;-64
2021/07/27 12:22:27;;;;;;;9.35;6.35;;;;;;;;;;5032440;28;20041;-65
2021/07/27 12:24:53;;;;;;;8.05;6.13;;;;;;;;;;5036545;28;20032;-66
2021/07/27 12:27:20;;;;;;;11.82;6.13;;;;;;;;;;5021559;28;20032;-64
2021/07/27 12:29:48;;;;;;;7.18;6.07;;;;;;;;;;5002507;28;20044;-66
2021/07/27 12:32:14;;;;;;;9.50;5.70;;;;;;;;;;5035730;28;20044;-66
2021/07/27 12:34:40;;;;;;;8.95;6.43;;;;;;;;;;5034037;28;20560;-67
2021/07/27 12:37:06;;;;;;;11.75;6.50;;;;;;;;;;5021326;28;20033;-66
2021/07/27 12:39:31;;;;;;;6.63;5.20;;;;;;;;;;5035750;28;20029;-65
2021/07/27 12:42:06;;;;;;;7.85;5.82;;;;;;;;;;5004249;28;20074;-64
2021/07/27 12:44:32;;;;;;;7.50;6.15;;;;;;;;;;5031556;28;21582;-65
2021/07/27 12:46:58;;;;;;;8.27;6.57;;;;;;;;;;5032167;28;20057;-65
2021/07/27 12:49:24;;;;;;;11.80;7.38;;;;;;;;;;5014386;28;20047;-63
2021/07/27 12:51:52;;;;;;;14.57;6.50;;;;;;;;;;5022252;28;20036;-63
2021/07/27 12:54:17;;;;;;;15.75;6.80;;;;;;;;;;5034806;28;20044;-62
2021/07/27 12:56:43;;;;;;;8.77;6.85;;;;;;;;;;5021625;28;20083;-64
2021/07/27 12:59:09;;;;;;;9.23;6.75;;;;;;;;;;5007616;28;20042;-64
2021/07/27 13:01:34;;;;;;;10.52;7.40;;;;;;;;;;5021821;28;20036;-65
2021/07/27 13:04:03;;;;;;;13.20;7.57;;;;;;;;;;5033851;28;20055;-65
2021/07/27 13:06:35;;;;;;;14.55;7.13;;;;;;;;;;5032970;28;20033;-66
2021/07/27 13:09:01;;;;;;;12.85;6.65;;;;;;;;;;5017294;28;20048;-64
2021/07/27 13:11:26;;;;;;;9.23;6.35;;;;;;;;;;5034284;28;20024;-64
2021/07/27 13:13:54;;;;;;;10.98;6.28;;;;;;;;;;5001373;28;20029;-65
2021/07/27 13:16:19;;;;;;;11.25;6.38;;;;;;;;;;5037573;28;20044;-64
2021/07/27 13:18:45;;;;;;;10.27;6.70;;;;;;;;;;5021322;28;20078;-65
2021/07/27 13:21:14;;;;;;;13.60;6.68;;;;;;;;;;5034179;28;20040;-64
2021/07/27 13:23:42;;;;;;;10.20;6.15;;;;;;;;;;5000051;28;20028;-64
2021/07/27 13:26:13;;;;;;;11.70;6.05;;;;;;;;;;5020364;28;20040;-64
2021/07/27 13:28:39;;;;;;;9.38;6.35;;;;;;;;;;5015551;28;20040;-63
2021/07/27 13:31:05;;;;;;;10.68;5.60;;;;;;;;;;5033986;28;20029;-64
2021/07/27 13:33:35;;;;;;;9.40;6.18;;;;;;;;;;5021457;28;20033;-64
2021/07/27 13:36:03;;;;;;;6.90;5.22;;;;;;;;;;5023262;28;20659;-65
2021/07/27 13:38:29;;;;;;;7.45;5.32;;;;;;;;;;5037472;28;20037;-64
2021/07/27 13:40:57;;;;;;;7.55;4.93;;;;;;;;;;5023203;28;20028;-64
2021/07/27 13:43:22;;;;;;;8.90;5.30;;;;;;;;;;5023352;28;20036;-64
2021/07/27 13:45:50;;;;;;;11.23;5.68;;;;;;;;;;5018691;28;20138;-64
2021/07/27 13:48:21;;;;;;;7.32;5.40;;;;;;;;;;5038242;28;20565;-63
2021/07/27 13:50:47;;;;;;;12.00;5.38;;;;;;;;;;5020153;28;20445;-63
2021/07/27 13:53:12;;;;;;;8.50;5.75;;;;;;;;;;5037862;28;20033;-63
2021/07/27 13:55:40;;;;;;;7.10;5.38;;;;;;;;;;5039824;28;20043;-63
2021/07/27 13:58:06;;;;;;;9.15;5.55;;;;;;;;;;5018206;28;20491;-64
2021/07/27 14:00:36;;;;;;;11.98;6.22;;;;;;;;;;5011607;28;20185;-65
2021/07/27 14:03:01;;;;;;;9.55;5.78;;;;;;;;;;5038867;28;20063;-63
2021/07/27 14:05:29;;;;;;;7.22;5.68;;;;;;;;;;5037499;28;20036;-64
2021/07/27 14:07:57;;;;;;;8.38;6.43;;;;;;;;;;5012240;28;20036;-64
2021/07/27 14:10:25;;;;;;;12.13;6.35;;;;;;;;;;5008961;28;22011;-62
2021/07/27 14:12:53;;;;;;;8.35;6.55;;;;;;;;;;5003133;28;22025;-64
2021/07/27 14:15:18;;;;;;;11.27;6.65;;;;;;;;;;5018139;28;20033;-63
2021/07/27 14:17:44;;;;;;;9.10;5.30;;;;;;;;;;5036352;28;21643;-63
2021/07/27 14:20:10;;;;;;;9.57;6.80;;;;;;;;;;5038956;28;20117;-63
2021/07/27 14:22:36;;;;;;;8.23;5.72;;;;;;;;;;5037032;28;20033;-64
2021/07/27 14:25:02;;;;;;;8.40;6.20;;;;;;;;;;5037245;28;20048;-63
2021/07/27 14:27:28;;;;;;;9.90;6.90;;;;;;;;;;5038873;28;20060;-64
2021/07/27 14:29:53;;;;;;;12.13;7.05;;;;;;;;;;5035159;28;20063;-63
2021/07/27 14:32:21;;;;;;;11.50;7.53;;;;;;;;;;5023099;28;20033;-62
2021/07/27 14:34:49;;;;;;;10.45;7.53;;;;;;;;;;5009295;28;20851;-62
2021/07/27 14:37:14;;;;;;;11.55;8.38;;;;;;;;;;5019123;28;20048;-63
2021/07/27 14:39:42;;;;;;;14.93;8.50;;;;;;;;;;5037343;28;20028;-62
2021/07/27 14:42:08;;;;;;;10.75;8.18;;;;;;;;;;5019042;28;20043;-63
2021/07/27 14:44:33;;;;;;;10.20;7.78;;;;;;;;;;5018080;28;20028;-62
2021/07/27 14:46:59;;;;;;;10.82;8.25;;;;;;;;;;5009797;28;20056;-63
2021/07/27 14:49:25;;;;;;;18.65;8.25;;;;;;;;;;5035453;28;20050;-65